Decoded Metar for KVTI (VINTON in IA, USA) (IATA:VTI) | Meteo·Mobile Aviation Weather
aviador You're here:

KVTI Decoded Metar

VINTON in IA, USA
Report Time2018-10-17 02:55:00
UTC Time2018-10-17 03:09:27
Flight Rules vfr VFR
Wind270° at 05 kt
W.Decomp.*RWY 27: 5.0 kt HW 0.1 kt LCW
RWY 34: 1.6 kt HW 4.7 kt LCW
W.Rank270° ranks 20
Current wind is below 270° avg. (7.5)
Visibility9999 m
Phenomena:N/A
Clouds:N/A
Expected CloudBase > 2,800 ft AGL from Temp-Dew spread
CeilingNone
Temp09°C (ISA -4)
Dew Point02°C (62% RH)
AAT5.5°C
QNH1020 hPa
Density Alt180 ft
Elevation837 ft
Report Wrong Elevation
Raw Report
KVTI 170255Z AUTO 27005KT 10SM CLR 09/02 A3013 RMK AO2
T00910022=

Extra information for KVTI:More info

Metar Taf Metar & Taf Last 4 Metars F.Rules Stats Wind Profile Meteogram Temp Stats Airport Information Weather charts Add Link Nearby VenuesMetar ALERT Operation Metar Decoded Social comments

AIRNAV info for KVTI